Time;durP1;ratioP1;P1;durP2;ratioP2;P2;SDS_P1;SDS_P2;PMS_P1;PMS_P2;Temp;Humidity;BMP_temperature;BMP_pressure;BME280_temperature;BME280_humidity;BME280_pressure;Samples;Min_cycle;Max_cycle;Signal;HPM_P1;HPM_P2
2022/09/11 00:00:18;;;;;;;;;;;;;;;14.80;100.00;100972.00;5035752;28;20359;-80
2022/09/11 00:02:45;;;;;;;;;;;;;;;14.78;100.00;100966.09;5036187;28;19932;-80
2022/09/11 00:05:11;;;;;;;;;;;;;;;14.73;100.00;100964.97;5035293;28;19925;-79
2022/09/11 00:07:39;;;;;;;;;;;;;;;14.75;100.00;100962.97;5035922;28;20021;-79
2022/09/11 00:10:06;;;;;;;;;;;;;;;14.72;100.00;100964.16;5034890;28;19976;-80
2022/09/11 00:12:33;;;;;;;;;;;;;;;14.64;100.00;100964.22;5034657;28;19931;-79
2022/09/11 00:14:59;;;;;;;;;;;;;;;14.67;100.00;100974.38;5034813;28;19929;-79
2022/09/11 00:17:26;;;;;;;;;;;;;;;14.57;100.00;100973.81;5033617;28;19936;-79
2022/09/11 00:19:52;;;;;;;;;;;;;;;14.61;100.00;100972.47;5034394;28;20016;-79
2022/09/11 00:22:19;;;;;;;;;;;;;;;14.57;100.00;100974.63;5034679;28;19975;-79
2022/09/11 00:24:46;;;;;;;;;;;;;;;14.55;100.00;100973.16;5035321;28;19932;-79
2022/09/11 00:27:13;;;;;;;;;;;;;;;14.59;100.00;100975.28;5035325;28;19964;-79
2022/09/11 00:29:40;;;;;;;;;;;;;;;14.59;100.00;100970.00;5036887;28;19932;-79
2022/09/11 00:32:06;;;;;;;;;;;;;;;14.59;100.00;100972.66;5034985;28;19960;-79
2022/09/11 00:34:33;;;;;;;;;;;;;;;14.61;100.00;100977.75;5031670;28;20447;-77
2022/09/11 00:36:59;;;;;;;;;;;;;;;14.58;100.00;100978.09;5032564;28;20395;-79
2022/09/11 00:39:26;;;;;;;;;;;;;;;14.56;100.00;100982.69;5033417;28;19984;-78
2022/09/11 00:41:54;;;;;;;;;;;;;;;14.57;100.00;100992.25;5034112;28;19936;-78
2022/09/11 00:44:39;;;;;;;;;;;;;;;14.58;100.00;100988.63;5033204;28;19931;-77
2022/09/11 00:47:08;;;;;;;;;;;;;;;14.56;100.00;100987.97;5033596;28;19929;-78
2022/09/11 00:49:38;;;;;;;;;;;;;;;14.55;100.00;100986.34;5034339;28;19999;-80
2022/09/11 00:52:07;;;;;;;;;;;;;;;14.55;100.00;100986.34;5036681;28;20320;-79
2022/09/11 00:54:35;;;;;;;;;;;;;;;14.51;100.00;100982.41;5036053;28;19972;-78
2022/09/11 00:57:05;;;;;;;;;;;;;;;14.50;100.00;100981.59;5036093;28;19983;-79
2022/09/11 00:59:32;;;;;;;;;;;;;;;14.46;100.00;100985.56;5036516;28;20023;-80
2022/09/11 01:01:59;;;;;;;;;;;;;;;14.46;100.00;100990.00;5038763;28;19971;-79
2022/09/11 01:04:26;;;;;;;;;;;;;;;14.45;100.00;100999.72;5037278;28;19929;-78
2022/09/11 01:06:56;;;;;;;;;;;;;;;14.45;100.00;100994.44;5036309;28;20403;-79
2022/09/11 01:09:25;;;;;;;;;;;;;;;14.38;100.00;100992.63;5036615;28;20140;-79
2022/09/11 01:11:57;;;;;;;;;;;;;;;14.35;100.00;100999.06;5035874;28;20395;-77
2022/09/11 01:14:30;;;;;;;;;;;;;;;14.32;100.00;101003.84;5032781;28;19925;-78
2022/09/11 01:17:06;;;;;;;;;;;;;;;14.32;100.00;101007.28;5033007;28;19925;-78
2022/09/11 01:19:42;;;;;;;;;;;;;;;14.29;100.00;101008.47;5033340;28;19929;-78
2022/09/11 01:22:20;;;;;;;;;;;;;;;14.33;100.00;101016.84;5034256;28;20350;-77
2022/09/11 01:25:05;;;;;;;;;;;;;;;14.40;100.00;101016.97;5035900;28;19936;-78
2022/09/11 01:27:40;;;;;;;;;;;;;;;14.42;100.00;101009.75;5040631;28;20403;-79
2022/09/11 01:30:07;;;;;;;;;;;;;;;14.46;100.00;101017.16;5038671;28;19925;-78
2022/09/11 01:32:39;;;;;;;;;;;;;;;14.51;100.00;101016.63;5039424;28;19925;-78
2022/09/11 01:35:10;;;;;;;;;;;;;;;14.45;100.00;101007.59;5046949;28;19964;-79
2022/09/11 01:37:40;;;;;;;;;;;;;;;14.51;100.00;101008.72;5047895;28;19988;-81
2022/09/11 01:40:10;;;;;;;;;;;;;;;14.50;100.00;101021.06;5050223;28;19967;-82
2022/09/11 01:42:42;;;;;;;;;;;;;;;14.57;100.00;101018.56;5037814;28;19976;-79
2022/09/11 01:45:11;;;;;;;;;;;;;;;14.56;100.00;101020.41;5033976;28;19928;-77
2022/09/11 01:47:39;;;;;;;;;;;;;;;14.55;100.00;101013.47;5034826;28;19925;-78
2022/09/11 01:50:08;;;;;;;;;;;;;;;14.52;100.00;101028.81;5034849;28;20388;-79
2022/09/11 01:52:36;;;;;;;;;;;;;;;14.56;100.00;101032.75;5035835;28;19936;-78
2022/09/11 01:55:09;;;;;;;;;;;;;;;14.59;100.00;101037.66;5036556;28;19925;-79
2022/09/11 01:57:37;;;;;;;;;;;;;;;14.57;100.00;101039.66;5033007;28;19959;-78
2022/09/11 02:00:07;;;;;;;;;;;;;;;14.58;100.00;101043.94;5033063;28;19948;-79
2022/09/11 02:02:35;;;;;;;;;;;;;;;14.58;100.00;101052.66;5035101;28;19929;-79
2022/09/11 02:05:06;;;;;;;;;;;;;;;14.65;100.00;101060.66;5034836;28;19937;-79
2022/09/11 02:07:34;;;;;;;;;;;;;;;14.70;100.00;101055.69;5035337;28;20028;-78
2022/09/11 02:10:06;;;;;;;;;;;;;;;14.77;100.00;101050.56;5037260;28;19979;-79
2022/09/11 02:12:39;;;;;;;;;;;;;;;14.81;100.00;101055.31;5035837;28;19972;-78
2022/09/11 02:15:08;;;;;;;;;;;;;;;14.82;100.00;101046.41;5035993;28;19964;-78
2022/09/11 02:17:38;;;;;;;;;;;;;;;14.84;100.00;101046.25;5019433;28;20359;-80
2022/09/11 02:20:05;;;;;;;;;;;;;;;14.88;100.00;101048.34;5039352;28;19983;-80
2022/09/11 02:22:32;;;;;;;;;;;;;;;14.89;100.00;101052.63;5039411;28;19925;-80
2022/09/11 02:24:58;;;;;;;;;;;;;;;14.89;100.00;101050.00;5040016;28;20388;-80
2022/09/11 02:27:26;;;;;;;;;;;;;;;14.91;100.00;101050.66;5040094;28;20043;-79
2022/09/11 02:29:53;;;;;;;;;;;;;;;14.99;100.00;101051.59;5039413;28;20120;-80
2022/09/11 02:32:21;;;;;;;;;;;;;;;14.97;100.00;101057.03;5040004;28;19929;-80
2022/09/11 02:34:49;;;;;;;;;;;;;;;14.97;100.00;101051.78;5040986;28;20377;-81
2022/09/11 02:37:30;;;;;;;;;;;;;;;14.95;100.00;101045.84;5040050;28;19929;-80
2022/09/11 02:40:05;;;;;;;;;;;;;;;14.92;100.00;101052.28;5038782;28;19972;-80
2022/09/11 02:42:42;;;;;;;;;;;;;;;14.94;100.00;101052.94;5039090;28;19971;-80
2022/09/11 02:45:16;;;;;;;;;;;;;;;14.95;100.00;101056.38;5040355;28;19925;-80
2022/09/11 02:47:47;;;;;;;;;;;;;;;14.92;100.00;101060.19;5019879;28;19997;-80
2022/09/11 02:50:21;;;;;;;;;;;;;;;14.89;100.00;101060.53;5022147;28;20013;-81
2022/09/11 02:52:53;;;;;;;;;;;;;;;14.86;100.00;101063.53;5040769;28;19925;-80
2022/09/11 02:55:21;;;;;;;;;;;;;;;14.98;100.00;101057.84;5040099;28;19925;-80
2022/09/11 02:57:51;;;;;;;;;;;;;;;14.95;100.00;101074.84;5040244;28;19929;-80
2022/09/11 03:00:18;;;;;;;;;;;;;;;14.90;100.00;101083.25;5039341;28;19925;-80
2022/09/11 03:02:47;;;;;;;;;;;;;;;14.93;100.00;101072.38;5040314;28;20362;-80
2022/09/11 03:05:13;;;;;;;;;;;;;;;14.93;100.00;101076.81;5038716;28;19992;-80
2022/09/11 03:07:40;;;;;;;;;;;;;;;14.98;100.00;101081.56;5038988;28;20016;-80
2022/09/11 03:10:10;;;;;;;;;;;;;;;14.92;100.00;101069.91;5034250;28;19925;-80
2022/09/11 03:12:36;;;;;;;;;;;;;;;14.93;100.00;101068.91;5037211;28;19932;-80
2022/09/11 03:15:02;;;;;;;;;;;;;;;14.87;100.00;101080.97;5039500;28;20439;-80
2022/09/11 03:17:29;;;;;;;;;;;;;;;14.92;100.00;101076.00;5039511;28;19925;-79
2022/09/11 03:19:57;;;;;;;;;;;;;;;14.98;100.00;101078.94;5038601;28;19929;-80
2022/09/11 03:22:23;;;;;;;;;;;;;;;15.01;100.00;101083.88;5039670;28;20011;-78
2022/09/11 03:24:50;;;;;;;;;;;;;;;14.96;100.00;101080.94;5039612;28;19993;-80
2022/09/11 03:27:17;;;;;;;;;;;;;;;14.97;100.00;101083.38;5037633;28;20307;-80
2022/09/11 03:29:43;;;;;;;;;;;;;;;14.93;100.00;101088.19;5038860;28;19925;-79
2022/09/11 03:32:10;;;;;;;;;;;;;;;14.98;100.00;101085.03;5040421;28;20368;-78
2022/09/11 03:34:36;;;;;;;;;;;;;;;14.88;100.00;101082.63;5037008;28;20016;-79
2022/09/11 03:37:04;;;;;;;;;;;;;;;14.96;100.00;101089.66;5036965;28;19932;-77
2022/09/11 03:39:30;;;;;;;;;;;;;;;14.97;100.00;101083.38;5034318;28;19996;-77
2022/09/11 03:41:57;;;;;;;;;;;;;;;14.89;100.00;101096.59;5033708;28;19925;-76
2022/09/11 03:44:23;;;;;;;;;;;;;;;14.91;100.00;101092.81;5035086;28;19972;-78
2022/09/11 03:46:51;;;;;;;;;;;;;;;14.96;100.00;101086.19;5034295;28;19931;-78
2022/09/11 03:49:19;;;;;;;;;;;;;;;14.89;100.00;101096.59;5033897;28;20066;-78
2022/09/11 03:51:46;;;;;;;;;;;;;;;14.86;100.00;101097.78;5035475;28;20455;-77
2022/09/11 03:54:16;;;;;;;;;;;;;;;14.87;100.00;101094.13;5041108;28;19987;-79
2022/09/11 03:56:44;;;;;;;;;;;;;;;14.88;100.00;101095.78;5038721;28;20403;-79
2022/09/11 03:59:11;;;;;;;;;;;;;;;14.85;100.00;101093.50;5041374;28;20023;-78
2022/09/11 04:01:37;;;;;;;;;;;;;;;14.80;100.00;101093.19;5040949;28;19925;-78
2022/09/11 04:04:04;;;;;;;;;;;;;;;14.79;100.00;101094.19;5038318;28;19967;-78
2022/09/11 04:06:31;;;;;;;;;;;;;;;14.86;100.00;101097.78;5036180;28;19925;-79
2022/09/11 04:08:58;;;;;;;;;;;;;;;14.81;100.00;101104.53;5036197;28;19936;-78
2022/09/11 04:11:26;;;;;;;;;;;;;;;14.79;100.00;101102.09;5043196;28;19964;-82
2022/09/11 04:13:52;;;;;;;;;;;;;;;14.74;100.00;101107.03;5043360;28;19956;-79
2022/09/11 04:16:19;;;;;;;;;;;;;;;14.79;100.00;101103.91;5041659;28;19925;-80
2022/09/11 04:18:46;;;;;;;;;;;;;;;14.81;100.00;101110.63;5041622;28;19929;-80
2022/09/11 04:21:14;;;;;;;;;;;;;;;14.84;100.00;101101.56;5040977;28;20387;-79
2022/09/11 04:23:41;;;;;;;;;;;;;;;14.82;100.00;101085.94;5039050;28;20004;-78
2022/09/11 04:26:13;;;;;;;;;;;;;;;14.90;100.00;101098.25;5033814;28;19975;-77
2022/09/11 04:28:41;;;;;;;;;;;;;;;14.87;100.00;101096.78;5034402;28;19924;-79
2022/09/11 04:31:07;;;;;;;;;;;;;;;14.85;100.00;101104.03;5036232;28;20172;-79
2022/09/11 04:33:34;;;;;;;;;;;;;;;14.90;100.00;101104.34;5036659;28;19925;-79
2022/09/11 04:36:03;;;;;;;;;;;;;;;14.89;100.00;101102.69;5035630;28;19985;-79
2022/09/11 04:38:29;;;;;;;;;;;;;;;14.92;100.00;101110.25;5034906;28;19995;-78
2022/09/11 04:40:59;;;;;;;;;;;;;;;14.83;100.00;101092.84;5035100;28;19975;-81
2022/09/11 04:43:26;;;;;;;;;;;;;;;14.78;100.00;101097.81;5035871;28;19988;-80
2022/09/11 04:45:59;;;;;;;;;;;;;;;14.81;100.00;101105.38;5037025;28;19960;-78
2022/09/11 04:48:25;;;;;;;;;;;;;;;14.80;100.00;101105.53;5036060;28;20447;-78
2022/09/11 04:50:58;;;;;;;;;;;;;;;14.78;100.00;101103.06;5036196;28;20011;-80
2022/09/11 04:53:24;;;;;;;;;;;;;;;14.80;100.00;101110.81;5036104;28;20040;-79
2022/09/11 04:55:50;;;;;;;;;;;;;;;14.77;100.00;101113.78;5039580;28;19975;-81
2022/09/11 04:58:17;;;;;;;;;;;;;;;14.71;100.00;101110.00;5039942;28;19926;-83
2022/09/11 05:00:43;;;;;;;;;;;;;;;14.71;100.00;101117.09;5039067;28;19961;-80
2022/09/11 05:03:11;;;;;;;;;;;;;;;14.68;100.00;101115.63;5039318;28;19976;-82
2022/09/11 05:05:37;;;;;;;;;;;;;;;14.74;100.00;101122.84;5039443;28;19957;-81
2022/09/11 05:08:05;;;;;;;;;;;;;;;14.70;100.00;101123.34;5039151;28;19925;-81
2022/09/11 05:10:31;;;;;;;;;;;;;;;14.72;100.00;101122.19;5039518;28;19979;-80
2022/09/11 05:12:58;;;;;;;;;;;;;;;14.67;100.00;101118.44;5038035;28;19960;-81
2022/09/11 05:15:24;;;;;;;;;;;;;;;14.59;100.00;101132.47;5036627;28;19956;-81
2022/09/11 05:17:50;;;;;;;;;;;;;;;14.51;100.00;101137.75;5038885;28;20013;-80
2022/09/11 05:20:18;;;;;;;;;;;;;;;14.52;100.00;101147.31;5039637;28;19972;-81
2022/09/11 05:22:45;;;;;;;;;;;;;;;14.53;100.00;101144.50;5039435;28;20019;-81
2022/09/11 05:25:12;;;;;;;;;;;;;;;14.62;100.00;101153.22;5039124;28;19979;-79
2022/09/11 05:27:39;;;;;;;;;;;;;;;14.64;100.00;101155.66;5038258;28;19932;-81
2022/09/11 05:30:06;;;;;;;;;;;;;;;14.65;100.00;101152.84;5036417;28;20430;-81
2022/09/11 05:32:32;;;;;;;;;;;;;;;14.66;100.00;101158.94;5036050;28;19929;-80
2022/09/11 05:34:59;;;;;;;;;;;;;;;14.64;100.00;101159.13;5037169;28;19996;-80
2022/09/11 05:37:27;;;;;;;;;;;;;;;14.63;100.00;101165.38;5037319;28;19944;-81
2022/09/11 05:39:53;;;;;;;;;;;;;;;14.57;100.00;101166.06;5037636;28;19965;-82
2022/09/11 05:42:20;;;;;;;;;;;;;;;14.56;100.00;101177.59;5038630;28;19925;-80
2022/09/11 05:44:47;;;;;;;;;;;;;;;14.51;100.00;101167.56;5040854;28;19952;-81
2022/09/11 05:47:13;;;;;;;;;;;;;;;14.53;100.00;101181.38;5041009;28;19925;-81
2022/09/11 05:49:40;;;;;;;;;;;;;;;14.57;100.00;101187.13;5041790;28;19932;-81
2022/09/11 05:52:06;;;;;;;;;;;;;;;14.57;100.00;101192.41;5043115;28;19952;-81
2022/09/11 05:54:34;;;;;;;;;;;;;;;14.54;100.00;101190.09;5038712;28;19964;-80
2022/09/11 05:57:01;;;;;;;;;;;;;;;14.53;100.00;101196.34;5037162;28;19929;-79
2022/09/11 05:59:27;;;;;;;;;;;;;;;14.54;100.00;101200.63;5035285;28;20007;-78
2022/09/11 06:01:55;;;;;;;;;;;;;;;14.59;100.00;101200.94;5034236;28;19931;-79
2022/09/11 06:04:21;;;;;;;;;;;;;;;14.63;100.00;101202.25;5034387;28;19932;-77
2022/09/11 06:06:48;;;;;;;;;;;;;;;14.55;100.00;101207.53;5034272;28;19932;-78
2022/09/11 06:09:14;;;;;;;;;;;;;;;14.56;100.00;101217.09;5033073;28;20391;-78
2022/09/11 06:11:42;;;;;;;;;;;;;;;14.59;100.00;101217.56;5035901;28;19968;-78
2022/09/11 06:14:09;;;;;;;;;;;;;;;14.58;100.00;101215.09;5034174;28;19925;-78
2022/09/11 06:16:36;;;;;;;;;;;;;;;14.62;100.00;101215.59;5033417;28;19929;-77
2022/09/11 06:19:03;;;;;;;;;;;;;;;14.65;100.00;101221.31;5034099;28;19971;-78
2022/09/11 06:21:30;;;;;;;;;;;;;;;14.66;100.00;101222.97;5034596;28;20036;-79
2022/09/11 06:23:56;;;;;;;;;;;;;;;14.66;100.00;101216.88;5035601;28;20017;-78
2022/09/11 06:26:23;;;;;;;;;;;;;;;14.66;100.00;101217.69;5034400;28;19987;-79
2022/09/11 06:28:51;;;;;;;;;;;;;;;14.72;100.00;101217.03;5034780;28;20032;-79
2022/09/11 06:31:18;;;;;;;;;;;;;;;14.72;100.00;101222.28;5038802;28;19980;-80
2022/09/11 06:33:45;;;;;;;;;;;;;;;14.69;100.00;101214.72;5037645;28;19929;-80
2022/09/11 06:36:13;;;;;;;;;;;;;;;14.76;100.00;101217.50;5036876;28;19948;-78
2022/09/11 06:38:39;;;;;;;;;;;;;;;14.79;100.00;101220.63;5035772;28;19932;-79
2022/09/11 06:41:06;;;;;;;;;;;;;;;14.85;100.00;101222.59;5036742;28;19925;-79
2022/09/11 06:43:33;;;;;;;;;;;;;;;14.91;100.00;101227.19;5037016;28;20342;-80
2022/09/11 06:46:04;;;;;;;;;;;;;;;14.97;100.00;101228.34;5036192;28;19963;-80
2022/09/11 06:48:31;;;;;;;;;;;;;;;14.91;100.00;101237.72;5036685;28;19979;-79
2022/09/11 06:51:01;;;;;;;;;;;;;;;15.05;100.00;101238.84;5038361;28;20012;-79
2022/09/11 06:53:28;;;;;;;;;;;;;;;14.98;100.00;101244.97;5038252;28;19925;-80
2022/09/11 06:55:58;;;;;;;;;;;;;;;15.07;100.00;101238.69;5036054;28;20016;-80
2022/09/11 06:58:24;;;;;;;;;;;;;;;15.10;100.00;101236.53;5037536;28;20016;-78
2022/09/11 07:00:50;;;;;;;;;;;;;;;15.11;100.00;101230.25;5037431;28;19988;-80
2022/09/11 07:03:18;;;;;;;;;;;;;;;15.13;100.00;101236.16;5039950;28;19925;-79
2022/09/11 07:05:45;;;;;;;;;;;;;;;15.07;100.00;101241.31;5040095;28;20020;-80
2022/09/11 07:08:12;;;;;;;;;;;;;;;15.10;100.00;101240.97;5043285;28;19935;-80
2022/09/11 07:10:38;;;;;;;;;;;;;;;15.10;100.00;101246.25;5041460;28;19959;-80
2022/09/11 07:13:05;;;;;;;;;;;;;;;15.17;100.00;101242.72;5040308;28;19972;-81
2022/09/11 07:15:31;;;;;;;;;;;;;;;15.15;100.00;101246.53;5038504;28;20407;-78
2022/09/11 07:18:00;;;;;;;;;;;;;;;15.13;100.00;101240.59;5035362;28;20307;-79
2022/09/11 07:20:28;;;;;;;;;;;;;;;15.17;100.00;101252.44;5034126;28;19936;-77
2022/09/11 07:22:54;;;;;;;;;;;;;;;15.14;100.00;101247.53;5033342;28;20015;-77
2022/09/11 07:25:20;;;;;;;;;;;;;;;15.16;100.00;101242.91;5033077;28;20303;-77
2022/09/11 07:27:47;;;;;;;;;;;;;;;15.09;100.00;101244.59;5033752;28;19968;-77
2022/09/11 07:30:13;;;;;;;;;;;;;;;15.13;100.00;101245.88;5032714;28;20020;-78
2022/09/11 07:32:40;;;;;;;;;;;;;;;15.20;100.00;101258.22;5033096;28;19925;-78
2022/09/11 07:35:07;;;;;;;;;;;;;;;15.28;100.00;101249.44;5033527;28;20015;-78
2022/09/11 07:37:34;;;;;;;;;;;;;;;15.15;100.00;101260.53;5033943;28;20411;-77
2022/09/11 07:40:01;;;;;;;;;;;;;;;15.26;100.00;101252.25;5033963;28;19925;-79
2022/09/11 07:42:27;;;;;;;;;;;;;;;15.22;100.00;101250.94;5033634;28;19947;-77
2022/09/11 07:44:54;;;;;;;;;;;;;;;15.27;100.00;101259.16;5033917;28;19960;-78
2022/09/11 07:47:20;;;;;;;;;;;;;;;15.40;100.00;101247.25;5032433;28;20031;-78
2022/09/11 07:49:47;;;;;;;;;;;;;;;15.37;100.00;101248.44;5032573;28;20019;-78
2022/09/11 07:52:13;;;;;;;;;;;;;;;15.43;100.00;101257.47;5032587;28;19929;-77
2022/09/11 07:54:41;;;;;;;;;;;;;;;15.49;100.00;101251.50;5033091;28;19976;-77
2022/09/11 07:57:08;;;;;;;;;;;;;;;15.57;100.00;101248.84;5032150;28;19925;-78
2022/09/11 07:59:34;;;;;;;;;;;;;;;15.64;100.00;101264.78;5031910;28;20047;-78
2022/09/11 08:02:01;;;;;;;;;;;;;;;15.69;100.00;101257.19;5031833;28;19931;-77
2022/09/11 08:04:27;;;;;;;;;;;;;;;15.63;100.00;101257.88;5032704;28;19971;-79
2022/09/11 08:06:54;;;;;;;;;;;;;;;15.66;100.00;101268.06;5031402;28;20015;-78
2022/09/11 08:09:20;;;;;;;;;;;;;;;15.77;100.00;101259.78;5032240;28;19932;-79
2022/09/11 08:11:48;;;;;;;;;;;;;;;15.76;100.00;101258.13;5033380;28;20438;-78
2022/09/11 08:14:16;;;;;;;;;;;;;;;15.74;100.00;101260.94;5034276;28;20442;-80
2022/09/11 08:16:42;;;;;;;;;;;;;;;15.75;100.00;101267.03;5034085;28;19932;-79
2022/09/11 08:19:10;;;;;;;;;;;;;;;15.72;100.00;101272.66;5032415;28;19925;-78
2022/09/11 08:21:36;;;;;;;;;;;;;;;15.78;100.00;101277.25;5036162;28;20000;-80
2022/09/11 08:24:03;;;;;;;;;;;;;;;15.78;100.00;101282.53;5033204;28;20289;-78
2022/09/11 08:26:30;;;;;;;;;;;;;;;15.81;100.00;101282.19;5031935;28;20396;-80
2022/09/11 08:28:58;;;;;;;;;;;;;;;15.86;100.00;101285.13;5034080;28;19925;-78
2022/09/11 08:31:25;;;;;;;;;;;;;;;15.89;100.00;101284.78;5032277;28;20351;-80
2022/09/11 08:33:52;;;;;;;;;;;;;;;16.02;100.00;101284.19;5035728;28;19925;-78
2022/09/11 08:36:19;;;;;;;;;;;;;;;16.00;100.00;101292.28;5034761;28;19990;-79
2022/09/11 08:38:46;;;;;;;;;;;;;;;16.19;100.00;101305.00;5031915;28;19983;-77
2022/09/11 08:41:25;;;;;;;;;;;;;;;16.24;100.00;101302.66;5031851;28;19925;-78
2022/09/11 08:43:54;;;;;;;;;;;;;;;16.34;100.00;101309.53;5032625;28;19964;-79
2022/09/11 08:46:23;;;;;;;;;;;;;;;16.37;100.00;101303.91;5037277;28;19925;-80
2022/09/11 08:48:54;;;;;;;;;;;;;;;16.31;100.00;101309.88;5038381;28;19925;-79
2022/09/11 08:51:21;;;;;;;;;;;;;;;16.22;100.00;101303.84;5038508;28;19925;-80
2022/09/11 08:53:47;;;;;;;;;;;;;;;16.30;100.00;101303.78;5037888;28;20011;-78
2022/09/11 08:56:17;;;;;;;;;;;;;;;16.29;100.00;101298.66;5036133;28;20015;-79
2022/09/11 08:58:47;;;;;;;;;;;;;;;16.27;100.00;101310.22;5034268;28;19936;-79
2022/09/11 09:01:22;;;;;;;;;;;;;;;16.48;100.00;101314.03;5036568;28;20028;-80
2022/09/11 09:03:57;;;;;;;;;;;;;;;16.43;100.00;101308.47;5033791;28;20116;-78
2022/09/11 09:06:33;;;;;;;;;;;;;;;16.50;100.00;101317.34;5032286;28;19929;-77
2022/09/11 09:09:03;;;;;;;;;;;;;;;16.43;100.00;101324.31;5030868;28;19932;-78
2022/09/11 09:11:36;;;;;;;;;;;;;;;16.47;100.00;101315.88;5033332;28;19925;-78
2022/09/11 09:14:28;;;;;;;;;;;;;;;16.54;100.00;101319.41;5031344;28;19983;-78
2022/09/11 09:16:57;;;;;;;;;;;;;;;16.61;100.00;101316.88;5032778;28;20008;-78
2022/09/11 09:19:28;;;;;;;;;;;;;;;16.57;100.00;101326.16;5033451;28;19975;-79
2022/09/11 09:22:00;;;;;;;;;;;;;;;16.52;100.00;101321.44;5033590;28;20024;-78
2022/09/11 09:24:29;;;;;;;;;;;;;;;16.64;100.00;101329.78;5034446;28;20361;-79
2022/09/11 09:26:56;;;;;;;;;;;;;;;16.72;100.00;101328.88;5033982;28;20359;-78
2022/09/11 09:29:23;;;;;;;;;;;;;;;16.46;100.00;101329.25;5033081;28;19925;-79
2022/09/11 09:31:52;;;;;;;;;;;;;;;16.38;100.00;101338.06;5035434;28;20358;-78
2022/09/11 09:34:19;;;;;;;;;;;;;;;16.29;100.00;101331.19;5035986;28;19932;-79
2022/09/11 09:36:50;;;;;;;;;;;;;;;16.21;100.00;101331.25;5035483;28;19948;-79
2022/09/11 09:39:17;;;;;;;;;;;;;;;16.30;100.00;101335.47;5035348;28;20349;-79
2022/09/11 09:42:00;;;;;;;;;;;;;;;16.55;100.00;101346.66;5035887;28;19929;-79
2022/09/11 09:44:34;;;;;;;;;;;;;;;16.69;100.00;101345.91;5036530;28;20024;-79
2022/09/11 09:47:01;;;;;;;;;;;;;;;16.75;100.00;101352.31;5036119;28;19993;-79
2022/09/11 09:49:29;;;;;;;;;;;;;;;17.00;100.00;101347.63;5035857;28;19975;-79
2022/09/11 09:51:58;;;;;;;;;;;;;;;17.13;100.00;101345.16;5046565;28;20356;-79
2022/09/11 09:54:27;;;;;;;;;;;;;;;17.18;100.00;101345.44;5054149;28;20298;-78
2022/09/11 09:59:34;;;;;;;60.67;36.58;;;;;;;17.37;100.00;101344.09;5087088;28;20385;-78
2022/09/11 10:02:01;;;;;;;;;;;;;;;17.26;100.00;101342.72;5066203;28;20044;-78
2022/09/11 10:04:29;;;;;;;64.05;38.70;;;;;;;17.67;100.00;101343.06;5036774;28;20519;-78
2022/09/11 10:07:09;;;;;;;63.45;38.50;;;;;;;17.91;100.00;101336.63;5008211;28;20370;-79
2022/09/11 10:09:36;;;;;;;58.63;37.38;;;;;;;18.17;100.00;101344.84;5008492;28;20054;-79
2022/09/11 10:12:07;;;;;;;53.22;35.53;;;;;;;18.47;99.05;101339.41;5009998;28;20424;-79
2022/09/11 10:14:44;;;;;;;53.22;35.60;;;;;;;18.74;97.74;101338.66;5010881;28;20456;-80
2022/09/11 10:17:20;;;;;;;50.15;33.85;;;;;;;18.93;96.34;101344.28;5012930;28;20050;-79
2022/09/11 10:19:46;;;;;;;55.42;37.35;;;;;;;18.64;95.35;101340.00;5014640;28;20042;-78
2022/09/11 10:22:28;;;;;;;54.58;37.15;;;;;;;18.54;96.26;101333.16;5011950;28;20076;-78
2022/09/11 10:25:12;;;;;;;52.42;34.08;;;;;;;18.94;95.60;101340.63;5013314;28;20068;-78
2022/09/11 10:27:45;;;;;;;46.40;32.70;;;;;;;19.22;94.14;101344.91;5014427;28;20050;-79
2022/09/11 10:30:30;;;;;;;46.88;32.70;;;;;;;19.36;92.56;101337.84;5015964;28;20074;-81
2022/09/11 10:32:59;;;;;;;46.85;33.53;;;;;;;19.50;92.49;101341.34;5019441;28;20057;-79
2022/09/11 10:35:27;;;;;;;47.83;33.53;;;;;;;19.14;91.52;101329.13;5010785;28;20069;-79
2022/09/11 10:38:16;;;;;;;48.85;34.22;;;;;;;19.13;93.18;101343.41;5013603;28;20057;-79
2022/09/11 10:40:55;;;;;;;49.50;33.60;;;;;;;19.25;92.19;101333.09;5011132;28;20133;-80
2022/09/11 10:43:25;;;;;;;51.20;35.45;;;;;;;19.64;91.76;101329.00;5010446;28;20373;-78
2022/09/11 10:46:06;;;;;;;47.75;33.08;;;;;;;19.83;90.44;101323.78;5011896;28;20504;-79
2022/09/11 10:48:33;;;;;;;51.67;34.67;;;;;;;19.72;89.65;101320.88;5014564;28;20105;-79
2022/09/11 10:51:10;;;;;;;51.95;35.00;;;;;;;19.61;89.76;101318.78;5014928;28;20144;-78
2022/09/11 10:53:47;;;;;;;51.63;35.40;;;;;;;19.61;89.14;101321.44;5000202;28;20060;-79
2022/09/11 10:56:15;;;;;;;60.03;38.50;;;;;;;19.49;89.36;101327.28;5009815;23;20104;-79
2022/09/11 10:58:46;;;;;;;63.50;40.28;;;;;;;19.71;90.07;101325.34;4998062;28;20063;-79
2022/09/11 11:01:14;;;;;;;55.38;35.50;;;;;;;19.94;88.63;101319.69;4997860;28;20043;-79
2022/09/11 11:03:40;;;;;;;49.58;34.20;;;;;;;20.07;87.18;101313.59;4992503;28;20110;-80
2022/09/11 11:06:24;;;;;;;44.65;30.65;;;;;;;20.21;86.86;101315.25;4990954;28;20545;-80
2022/09/11 11:09:05;;;;;;;49.13;32.72;;;;;;;20.65;85.77;101314.69;4990406;28;20082;-82
2022/09/11 11:11:49;;;;;;;45.67;31.95;;;;;;;20.60;84.59;101317.13;4981097;28;20116;-80
2022/09/11 11:14:49;;;;;;;38.88;29.45;;;;;;;20.34;83.79;101309.94;4979888;28;20051;-82
2022/09/11 11:17:23;;;;;;;39.38;28.77;;;;;;;20.44;85.10;101312.22;4980797;28;20070;-81
2022/09/11 11:20:13;;;;;;;38.30;27.70;;;;;;;20.34;85.61;101315.25;4963154;28;20043;-80
2022/09/11 11:23:01;;;;;;;29.65;22.05;;;;;;;19.97;83.95;101319.28;4962019;28;20055;-81
2022/09/11 11:25:41;;;;;;;31.77;23.05;;;;;;;19.94;85.93;101311.72;4961897;28;20059;-81
2022/09/11 11:31:33;;;;;;;25.70;21.85;;;;;;;19.80;85.42;101302.91;4954759;29;20065;-81
2022/09/11 11:34:54;;;;;;;27.23;22.83;;;;;;;20.23;83.10;101304.44;4961924;28;20130;-82
2022/09/11 11:40:55;;;;;;;26.23;22.08;;;;;;;20.29;82.31;101287.66;4929918;29;20059;-82
2022/09/11 11:43:31;;;;;;;21.77;18.58;;;;;;;20.35;79.93;101289.47;4961526;29;20055;-79
2022/09/11 11:49:24;;;;;;;22.42;18.63;;;;;;;20.51;79.62;101289.13;4960227;28;20130;-82
2022/09/11 11:52:17;;;;;;;20.13;17.23;;;;;;;20.69;79.47;101305.28;4961756;29;20057;-80
2022/09/11 11:54:55;;;;;;;24.05;19.85;;;;;;;20.32;81.31;101297.91;4961465;29;20074;-81
2022/09/11 11:57:28;;;;;;;20.90;17.67;;;;;;;20.08;81.97;101273.53;4961401;28;20090;-82
2022/09/11 11:59:59;;;;;;;17.73;15.70;;;;;;;20.31;81.10;101290.94;4956677;28;20130;-82
2022/09/11 12:02:35;;;;;;;15.98;13.77;;;;;;;20.21;79.43;101278.88;4958831;29;20143;-84
2022/09/11 12:05:05;;;;;;;25.58;14.95;;;;;;;20.00;79.22;101273.72;4957917;28;20071;-80
2022/09/11 12:07:36;;;;;;;17.83;14.60;;;;;;;20.14;80.02;101288.69;4947497;29;20055;-81
2022/09/11 12:10:07;;;;;;;15.95;13.93;;;;;;;20.26;79.93;101291.56;4957049;29;20514;-81
2022/09/11 12:13:02;;;;;;;;;;;;;;;;;;;;;
2022/09/11 12:15:46;;;;;;;22.98;16.25;;;;;;;20.63;80.44;101287.47;4959374;29;20047;-80
2022/09/11 12:28:18;;;;;;;16.33;14.05;;;;;;;20.65;76.75;101272.13;4993421;28;20108;-78
2022/09/11 12:31:19;;;;;;;14.93;12.57;;;;;;;20.81;77.60;101263.69;4978276;28;20061;-80
2022/09/11 12:34:01;;;;;;;15.45;13.50;;;;;;;20.65;76.62;101280.13;4978562;28;20050;-80
2022/09/11 12:36:42;;;;;;;17.33;13.57;;;;;;;20.80;76.05;101286.00;4977838;28;20070;-77
2022/09/11 12:39:22;;;;;;;16.25;13.77;;;;;;;20.70;74.83;101288.28;4981609;28;20050;-77
2022/09/11 12:42:25;;;;;;;15.88;13.48;;;;;;;20.74;76.14;101278.88;4960603;28;20055;-79
2022/09/11 12:44:59;;;;;;;15.80;13.25;;;;;;;20.83;74.38;101277.63;4963439;28;20047;-79
2022/09/11 12:47:28;;;;;;;13.43;12.02;;;;;;;21.11;75.46;101284.53;4977974;28;20101;-78